< < Back
Terminal Aerodrome Forecast


Current Version              Previous Versions:   1  2  3  4  5  6  7  8  9  

Terminal Aerodrome Forecast

647
FTUS44 KHUN 132329
TAFHSV
TAF
KHSV 132329Z 1400/1424 02009KT P6SM BKN028
      TEMPO 1403/1406 SCT030 BKN250
     FM140600 01005KT P6SM BKN030
     FM140900 35005KT P6SM SCT040 BKN060=



Latest METAR

017
SAUS80 KWBC 150400 RRA
MTRHSV
METAR KHSV 150353Z 36004KT 10SM CLR 21/16 A3017 RMK AO2 SLP211
T02110161


USA.gov is the U.S. government's official web portal to all federal, state and local government web resources and services.